Meteo

Condividi:

Previsioni per il volo, messo gentilmente a disposizione da www.datameteo.com

per info sul servizio, contattare info@datameteo.it


Metar LIMZ

Available data for LIMZ from the past 2 hours
LEVALDIGI
Metar
LIMZ 190650Z 19002KT CAVOK M01/M03 Q1021

06:50 UTC

Wind: 190° 2kt

Visibility:

Sky:

Temp: -1 deg C / 30.2 deg F

Dewpoint: -3 deg C / 26.6 deg F

Pressure: 1021 hPa

TAF
TAF LIMZ 190500Z 1906/2006 VRB05KT CAVOK

Gif Infrarosso


Gif Nuvole


Ultima immagine Infrarosso


Ultima immagine Nuvole


Gif Pioggia

Condividi: